Avalon — PBSF — position and weather

sailwx.info

Track history (hours):
 
Tides and Currents Weather Stations Pressure Air Temp Water Temp Dewpoint Dewpoint Depression Visibility Wind Speed Wind Dir Waves Ship Positions

Avalon

Last reported at 2014-Jul-24 20:10 UTC. Time now 2014-Jul-24 21:44 UTC.
Position N 50°56' E 001°20'.

Length 89 m; draft 5.4 m.

Type: Cargo ship. MMSI: 246578000.

Date/timePositionNaut miles runAvg speedWind from/ knotsBaromVisibWave heightAir tempDewpointWater temp
2014-Jul-24 20:10N 50°56' E 001°20'610.5
2014-Jul-24 19:33N 51°01' E 001°27'1212.3
2014-Jul-24 18:33N 51°10' E 001°40'1212.2
2014-Jul-24 17:33N 51°20' E 001°51'1111.1
2014-Jul-24 16:33N 51°29' E 002°01'1010.1
2014-Jul-24 15:33N 51°37' E 002°12'9 9.4
2014-Jul-24 14:33N 51°44' E 002°22'9 8.7
2014-Jul-24 13:33N 51°50' E 002°32'8 8.5
2014-Jul-24 12:33N 51°56' E 002°42'8 8.3
2014-Jul-24 11:33N 52°01' E 002°52'9 9.3
2014-Jul-24 10:33N 52°02' E 003°07'10 9.8
2014-Jul-24 09:33N 52°03' E 003°23'1110.7
2014-Jul-24 08:33N 52°04' E 003°40'1111.2
2014-Jul-24 07:33N 52°06' E 003°58'9 9.3
2014-Jul-24 06:33N 52°07' E 004°13'2 1.9
2014-Jul-24 05:33N 52°09' E 004°13'7 6.9
2014-Jul-24 04:33N 52°16' E 004°09'8 7.9
2014-Jul-24 03:33N 52°23' E 004°06'7 7.5
2014-Jul-24 02:33N 52°31' E 004°08'8 7.8
2014-Jul-24 01:33N 52°38' E 004°03'7 7.4
2014-Jul-24 00:33N 52°45' E 004°00'7 6.9
2014-Jul-23 23:33N 52°52' E 003°59'7 7.1
2014-Jul-23 22:33N 52°58' E 004°04'9 9.0
2014-Jul-23 21:33N 53°04' E 004°15'10 9.6
2014-Jul-23 20:28N 53°12' E 004°26'1010.4
2014-Jul-23 19:33N 53°21' E 004°33'9 9.3
2014-Jul-23 18:33N 53°28' E 004°42'9 9.2
2014-Jul-23 17:33N 53°32' E 004°56'9 8.9
2014-Jul-23 16:33N 53°35' E 005°10'9 8.7
2014-Jul-23 15:33N 53°38' E 005°24'9 8.8
2014-Jul-23 14:33N 53°41' E 005°38'10 9.7
2014-Jul-23 13:33N 53°44' E 005°53'1010.4
2014-Jul-23 12:33N 53°48' E 006°10'1110.7
2014-Jul-23 11:33N 53°50' E 006°28'1111.0
2014-Jul-23 10:33N 53°53' E 006°46'1110.8
2014-Jul-23 09:33N 53°56' E 007°04'1010.0
2014-Jul-23 08:33N 53°58' E 007°20'10 9.5
2014-Jul-23 07:33N 54°00' E 007°36'9 9.2
2014-Jul-23 06:33N 54°01' E 007°51'9 8.8
2014-Jul-23 05:33N 54°01' E 008°06'9 8.9
2014-Jul-23 04:33N 53°60' E 008°21'1010.2
2014-Jul-23 03:33N 53°57' E 008°38'1111.4
2014-Jul-23 02:33N 53°51' E 008°54'9 9.3
2014-Jul-23 01:33N 53°54' E 009°09'0 0.4
2014-Jul-23 00:33N 53°54' E 009°09'0 0.0
2014-Jul-22 23:33N 53°54' E 009°09'6 5.9
2014-Jul-22 22:33N 53°58' E 009°16'10 8.8
2014-Jul-22 21:26N 54°08' E 009°20'4 4.9
2014-Jul-22 20:33N 54°10' E 009°26'33 3.5
2014-Jul-22 11:08N 54°28' E 010°15'6 7.5
2014-Jul-22 10:23N 54°31' E 010°22'7 8.3
2014-Jul-22 09:32N 54°34' E 010°34'8 8.4
2014-Jul-22 08:34N 54°35' E 010°47'8 8.2
2014-Jul-22 07:34N 54°36' E 011°01'8 8.4
2014-Jul-22 06:33N 54°35' E 011°16'1010.0
2014-Jul-22 05:34N 54°31' E 011°31'10 9.8
2014-Jul-22 04:33N 54°27' E 011°47'9 9.2
2014-Jul-22 03:34N 54°27' E 012°03'8 8.3
2014-Jul-22 02:34N 54°33' E 012°13'9 8.8
2014-Jul-22 01:33N 54°40' E 012°22'10 9.6
2014-Jul-22 00:33N 54°45' E 012°36'9 9.5
2014-Jul-21 23:34N 54°49' E 012°50'9 9.3
2014-Jul-21 22:34N 54°52' E 013°06'9 9.4
2014-Jul-21 21:34N 54°55' E 013°21'9 9.3
2014-Jul-21 20:33N 54°58' E 013°36'2 9.1
2014-Jul-21 20:18N 54°59' E 013°40'7 9.4
2014-Jul-21 19:34N 55°02' E 013°52'9 9.4
2014-Jul-21 18:34N 55°06' E 014°06'10 9.5
2014-Jul-21 17:33N 55°14' E 014°16'10 9.6
2014-Jul-21 16:33N 55°21' E 014°27'9 9.4
2014-Jul-21 15:33N 55°28' E 014°39'9 9.2
2014-Jul-21 14:33N 55°32' E 014°53'9 9.4
2014-Jul-21 13:33N 55°37' E 015°07'8 6.5
2014-Jul-21 12:20N 55°41' E 015°19'7 9.0
2014-Jul-21 11:34N 55°44' E 015°30'9 9.2
2014-Jul-21 10:34N 55°49' E 015°44'9 9.3
2014-Jul-21 09:33N 55°54' E 015°58'9 9.3
2014-Jul-21 08:33N 55°58' E 016°13'9 9.4
2014-Jul-21 07:33N 56°03' E 016°27'21 9.9
2014-Jul-21 05:25N 56°20' E 016°52'910.3
2014-Jul-21 04:33N 56°28' E 016°57'1010.3
2014-Jul-21 03:33N 56°38' E 017°04'1110.3
2014-Jul-21 02:30N 56°48' E 017°11'1010.4
2014-Jul-21 01:34N 56°57' E 017°18'1010.1
2014-Jul-21 00:34N 57°06' E 017°24'1010.2
2014-Jul-20 23:33N 57°16' E 017°32'1010.1
2014-Jul-20 22:33N 57°25' E 017°39'10 9.9
2014-Jul-20 21:34N 57°34' E 017°45'9 9.4
2014-Jul-20 20:33N 57°42' E 017°56'10 9.7
2014-Jul-20 19:31N 57°51' E 018°05'1010.2
2014-Jul-20 18:33N 57°59' E 018°14'  
Track history (hours):
 
Tides and Currents Weather Stations Pressure Air Temp Water Temp Dewpoint Dewpoint Depression Visibility Wind Speed Wind Dir Waves Ship Positions

Avalon

Last reported at 2014-Jul-24 20:10 UTC. Time now 2014-Jul-24 21:44 UTC.
Position N 50°56' E 001°20'.

Length 89 m; draft 5.4 m.

Type: Cargo ship. MMSI: 246578000.

Date/timePositionNaut miles runAvg speedWind from/ knotsBaromVisibWave heightAir tempDewpointWater temp
2014-Jul-24 20:10N 50°56' E 001°20'610.5
2014-Jul-24 19:33N 51°01' E 001°27'1212.3
2014-Jul-24 18:33N 51°10' E 001°40'1212.2
2014-Jul-24 17:33N 51°20' E 001°51'1111.1
2014-Jul-24 16:33N 51°29' E 002°01'1010.1
2014-Jul-24 15:33N 51°37' E 002°12'9 9.4
2014-Jul-24 14:33N 51°44' E 002°22'9 8.7
2014-Jul-24 13:33N 51°50' E 002°32'8 8.5
2014-Jul-24 12:33N 51°56' E 002°42'8 8.3
2014-Jul-24 11:33N 52°01' E 002°52'9 9.3
2014-Jul-24 10:33N 52°02' E 003°07'10 9.8
2014-Jul-24 09:33N 52°03' E 003°23'1110.7
2014-Jul-24 08:33N 52°04' E 003°40'1111.2
2014-Jul-24 07:33N 52°06' E 003°58'9 9.3
2014-Jul-24 06:33N 52°07' E 004°13'2 1.9
2014-Jul-24 05:33N 52°09' E 004°13'7 6.9
2014-Jul-24 04:33N 52°16' E 004°09'8 7.9
2014-Jul-24 03:33N 52°23' E 004°06'7 7.5
2014-Jul-24 02:33N 52°31' E 004°08'8 7.8
2014-Jul-24 01:33N 52°38' E 004°03'7 7.4
2014-Jul-24 00:33N 52°45' E 004°00'7 6.9
2014-Jul-23 23:33N 52°52' E 003°59'7 7.1
2014-Jul-23 22:33N 52°58' E 004°04'9 9.0
2014-Jul-23 21:33N 53°04' E 004°15'10 9.6
2014-Jul-23 20:28N 53°12' E 004°26'1010.4
2014-Jul-23 19:33N 53°21' E 004°33'9 9.3
2014-Jul-23 18:33N 53°28' E 004°42'9 9.2
2014-Jul-23 17:33N 53°32' E 004°56'9 8.9
2014-Jul-23 16:33N 53°35' E 005°10'9 8.7
2014-Jul-23 15:33N 53°38' E 005°24'9 8.8
2014-Jul-23 14:33N 53°41' E 005°38'10 9.7
2014-Jul-23 13:33N 53°44' E 005°53'1010.4
2014-Jul-23 12:33N 53°48' E 006°10'1110.7
2014-Jul-23 11:33N 53°50' E 006°28'1111.0
2014-Jul-23 10:33N 53°53' E 006°46'1110.8
2014-Jul-23 09:33N 53°56' E 007°04'1010.0
2014-Jul-23 08:33N 53°58' E 007°20'10 9.5
2014-Jul-23 07:33N 54°00' E 007°36'9 9.2
2014-Jul-23 06:33N 54°01' E 007°51'9 8.8
2014-Jul-23 05:33N 54°01' E 008°06'9 8.9
2014-Jul-23 04:33N 53°60' E 008°21'1010.2
2014-Jul-23 03:33N 53°57' E 008°38'1111.4
2014-Jul-23 02:33N 53°51' E 008°54'9 9.3
2014-Jul-23 01:33N 53°54' E 009°09'0 0.4
2014-Jul-23 00:33N 53°54' E 009°09'0 0.0
2014-Jul-22 23:33N 53°54' E 009°09'6 5.9
2014-Jul-22 22:33N 53°58' E 009°16'10 8.8
2014-Jul-22 21:26N 54°08' E 009°20'4 4.9
2014-Jul-22 20:33N 54°10' E 009°26'33 3.5
2014-Jul-22 11:08N 54°28' E 010°15'6 7.5
2014-Jul-22 10:23N 54°31' E 010°22'7 8.3
2014-Jul-22 09:32N 54°34' E 010°34'8 8.4
2014-Jul-22 08:34N 54°35' E 010°47'8 8.2
2014-Jul-22 07:34N 54°36' E 011°01'8 8.4
2014-Jul-22 06:33N 54°35' E 011°16'1010.0
2014-Jul-22 05:34N 54°31' E 011°31'10 9.8
2014-Jul-22 04:33N 54°27' E 011°47'9 9.2
2014-Jul-22 03:34N 54°27' E 012°03'8 8.3
2014-Jul-22 02:34N 54°33' E 012°13'9 8.8
2014-Jul-22 01:33N 54°40' E 012°22'10 9.6
2014-Jul-22 00:33N 54°45' E 012°36'9 9.5
2014-Jul-21 23:34N 54°49' E 012°50'9 9.3
2014-Jul-21 22:34N 54°52' E 013°06'9 9.4
2014-Jul-21 21:34N 54°55' E 013°21'9 9.3
2014-Jul-21 20:33N 54°58' E 013°36'2 9.1
2014-Jul-21 20:18N 54°59' E 013°40'7 9.4
2014-Jul-21 19:34N 55°02' E 013°52'9 9.4
2014-Jul-21 18:34N 55°06' E 014°06'10 9.5
2014-Jul-21 17:33N 55°14' E 014°16'10 9.6
2014-Jul-21 16:33N 55°21' E 014°27'9 9.4
2014-Jul-21 15:33N 55°28' E 014°39'9 9.2
2014-Jul-21 14:33N 55°32' E 014°53'9 9.4
2014-Jul-21 13:33N 55°37' E 015°07'8 6.5
2014-Jul-21 12:20N 55°41' E 015°19'7 9.0
2014-Jul-21 11:34N 55°44' E 015°30'9 9.2
2014-Jul-21 10:34N 55°49' E 015°44'9 9.3
2014-Jul-21 09:33N 55°54' E 015°58'9 9.3
2014-Jul-21 08:33N 55°58' E 016°13'9 9.4
2014-Jul-21 07:33N 56°03' E 016°27'21 9.9
2014-Jul-21 05:25N 56°20' E 016°52'910.3
2014-Jul-21 04:33N 56°28' E 016°57'1010.3
2014-Jul-21 03:33N 56°38' E 017°04'1110.3
2014-Jul-21 02:30N 56°48' E 017°11'1010.4
2014-Jul-21 01:34N 56°57' E 017°18'1010.1
2014-Jul-21 00:34N 57°06' E 017°24'1010.2
2014-Jul-20 23:33N 57°16' E 017°32'1010.1
2014-Jul-20 22:33N 57°25' E 017°39'10 9.9
2014-Jul-20 21:34N 57°34' E 017°45'9 9.4
2014-Jul-20 20:33N 57°42' E 017°56'10 9.7
2014-Jul-20 19:31N 57°51' E 018°05'1010.2
2014-Jul-20 18:33N 57°59' E 018°14'  

Dump ship's entire track history